createdAt,value
2023-05-10T00:00:42.617Z,95721.16
2023-05-10T00:01:50.711Z,95718.45
2023-05-10T00:02:56.979Z,95715.84
2023-05-10T00:04:03.411Z,95712.81
2023-05-10T00:05:10.882Z,95711.95
2023-05-10T00:06:17.396Z,95710.92
2023-05-10T00:07:23.820Z,95702.62
2023-05-10T00:08:30.530Z,95701.33
2023-05-10T00:09:37.245Z,95701.84
2023-05-10T00:10:43.861Z,95700.21
2023-05-10T00:11:49.847Z,95700.12
2023-05-10T00:12:56.123Z,95699.68
2023-05-10T00:14:02.069Z,95702.79
2023-05-10T00:15:11.691Z,95701.16
2023-05-10T00:16:17.585Z,95701.27
2023-05-10T00:17:23.771Z,95699.63
2023-05-10T00:18:29.697Z,95702.40
2023-05-10T00:19:35.875Z,95703.04
2023-05-10T00:20:42.332Z,95701.91
2023-05-10T00:21:48.470Z,95701.91
2023-05-10T00:22:54.948Z,95701.70
2023-05-10T00:24:01.628Z,95699.20
2023-05-10T00:25:11.554Z,95699.46
2023-05-10T00:26:18.129Z,95700.45
2023-05-10T00:27:24.595Z,95698.95
2023-05-10T00:28:31.701Z,95695.98
2023-05-10T00:29:38.152Z,95697.65
2023-05-10T00:30:44.692Z,95693.98
2023-05-10T00:31:51.139Z,95693.67
2023-05-10T00:32:57.468Z,95697.30
2023-05-10T00:34:04.068Z,95693.79
2023-05-10T00:35:12.149Z,95695.14
2023-05-10T00:36:17.833Z,95696.94
2023-05-10T00:37:23.751Z,95696.79
2023-05-10T00:38:29.847Z,95697.27
2023-05-10T00:39:36.063Z,95697.48
2023-05-10T00:40:42.080Z,95699.38
2023-05-10T00:41:48.505Z,95696.23
2023-05-10T00:42:54.613Z,95696.70
2023-05-10T00:44:01.913Z,95693.79
2023-05-10T00:45:09.760Z,95693.52
2023-05-10T00:46:17.084Z,95691.10
2023-05-10T00:47:23.741Z,95690.83
2023-05-10T00:48:31.286Z,95692.13
2023-05-10T00:49:37.745Z,95693.89
2023-05-10T00:50:44.024Z,95690.09
2023-05-10T00:51:50.667Z,95694.98
2023-05-10T00:52:56.678Z,95694.73
2023-05-10T00:54:03.437Z,95693.70
2023-05-10T00:55:13.087Z,95689.98
2023-05-10T00:56:19.191Z,95692.20
2023-05-10T00:57:25.277Z,95692.15
2023-05-10T00:58:32.208Z,95689.27
2023-05-10T00:59:38.154Z,95690.03
2023-05-10T01:00:47.472Z,95690.74
2023-05-10T01:01:53.410Z,95693.57
2023-05-10T01:02:59.739Z,95694.06
2023-05-10T01:04:06.864Z,95694.40
2023-05-10T01:05:13.658Z,95690.94
2023-05-10T01:06:20.187Z,95693.18
2023-05-10T01:07:26.513Z,95692.29
2023-05-10T01:08:32.996Z,95690.34
2023-05-10T01:09:38.866Z,95687.77
2023-05-10T01:10:46.629Z,95686.15
2023-05-10T01:11:52.979Z,95684.64
2023-05-10T01:13:00.560Z,95684.23
2023-05-10T01:14:07.973Z,95681.91
2023-05-10T01:15:16.123Z,95679.04
2023-05-10T01:16:22.448Z,95676.14
2023-05-10T01:17:28.890Z,95679.34
2023-05-10T01:18:37.556Z,95676.58
2023-05-10T01:19:43.846Z,95676.81
2023-05-10T01:20:56.776Z,95679.36
2023-05-10T01:22:16.877Z,95679.10
2023-05-10T01:23:38.811Z,95677.27
2023-05-10T01:25:19.756Z,95675.50
2023-05-10T01:26:46.611Z,95676.74
2023-05-10T01:28:18.655Z,95674.97
2023-05-10T01:30:14.951Z,95672.92
2023-05-10T01:32:01.997Z,95672.38
2023-05-10T01:33:17.029Z,95674.16
2023-05-10T01:34:28.707Z,95671.42
2023-05-10T01:35:42.824Z,95673.15
2023-05-10T01:36:56.811Z,95669.75
2023-05-10T01:38:12.994Z,95671.23
2023-05-10T01:39:25.842Z,95671.38
2023-05-10T01:40:38.624Z,95676.30
2023-05-10T01:41:52.537Z,95671.92
2023-05-10T01:43:03.634Z,95669.50
2023-05-10T01:44:19.807Z,95670.74
2023-05-10T01:45:31.750Z,95668.09
2023-05-10T01:46:39.451Z,95667.88
2023-05-10T01:47:50.252Z,95663.50
2023-05-10T01:49:00.357Z,95663.88
2023-05-10T01:50:11.706Z,95665.94
2023-05-10T01:51:22.925Z,95663.83
2023-05-10T01:52:38.298Z,95664.48
2023-05-10T01:53:43.416Z,95662.80
2023-05-10T01:54:55.236Z,95665.93
2023-05-10T01:56:03.829Z,95662.52
2023-05-10T01:57:15.290Z,95664.80
2023-05-10T01:58:26.089Z,95664.11
2023-05-10T01:59:37.443Z,95662.36
2023-05-10T02:00:46.628Z,95662.20
2023-05-10T02:01:52.276Z,95660.30
2023-05-10T02:03:00.446Z,95664.63
2023-05-10T02:04:08.213Z,95663.76
2023-05-10T02:05:16.353Z,95659.98
2023-05-10T02:06:25.344Z,95655.05
2023-05-10T02:07:37.251Z,95656.90
2023-05-10T02:08:44.311Z,95660.52
2023-05-10T02:09:51.644Z,95653.23
2023-05-10T02:10:59.606Z,95656.89
2023-05-10T02:12:09.293Z,95654.08
2023-05-10T02:13:17.261Z,95657.60
2023-05-10T02:14:25.590Z,95654.58
2023-05-10T02:15:33.372Z,95656.14
2023-05-10T02:16:41.802Z,95649.86
2023-05-10T02:17:49.739Z,95651.76
2023-05-10T02:18:57.847Z,95651.59
2023-05-10T02:20:07.026Z,95649.80
2023-05-10T02:21:12.040Z,95649.59
2023-05-10T02:22:19.502Z,95650.09
2023-05-10T02:23:27.362Z,95653.70
2023-05-10T02:24:35.947Z,95653.64
2023-05-10T02:25:43.998Z,95652.95
2023-05-10T02:26:52.593Z,95652.63
2023-05-10T02:28:01.202Z,95652.58
2023-05-10T02:29:09.787Z,95652.24
2023-05-10T02:30:17.196Z,95651.86
2023-05-10T02:31:24.313Z,95650.99
2023-05-10T02:32:32.588Z,95652.23
2023-05-10T02:33:41.474Z,95653.80
2023-05-10T02:34:52.962Z,95656.23
2023-05-10T02:36:00.357Z,95654.98
2023-05-10T02:37:08.333Z,95652.16
2023-05-10T02:38:14.813Z,95652.05
2023-05-10T02:39:22.369Z,95652.33
2023-05-10T02:40:29.588Z,95651.08
2023-05-10T02:41:36.461Z,95646.39
2023-05-10T02:42:45.510Z,95651.95
2023-05-10T02:43:53.191Z,95655.47
2023-05-10T02:45:03.897Z,95654.70
2023-05-10T02:46:09.885Z,95652.54
2023-05-10T02:47:16.251Z,95654.30
2023-05-10T02:48:22.899Z,95655.17
2023-05-10T02:49:29.327Z,95654.84
2023-05-10T02:50:37.262Z,95654.41
2023-05-10T02:51:47.310Z,95655.55
2023-05-10T02:52:57.387Z,95654.31
2023-05-10T02:54:08.526Z,95655.50
2023-05-10T02:55:19.068Z,95654.96
2023-05-10T02:56:36.984Z,95652.04
2023-05-10T02:57:48.037Z,95653.19
2023-05-10T02:58:54.282Z,95654.58
2023-05-10T03:00:01.407Z,95656.15
2023-05-10T03:01:09.050Z,95655.66
2023-05-10T03:02:15.520Z,95658.42
2023-05-10T03:03:23.312Z,95659.58
2023-05-10T03:04:29.458Z,95662.21
2023-05-10T03:05:36.805Z,95657.55
2023-05-10T03:06:43.753Z,95661.45
2023-05-10T03:07:52.995Z,95661.98
2023-05-10T03:08:57.759Z,95659.50
2023-05-10T03:10:04.795Z,95659.17
2023-05-10T03:11:25.009Z,95658.98
2023-05-10T03:12:43.374Z,95657.89
2023-05-10T03:14:03.392Z,95655.29
2023-05-10T03:15:18.902Z,95654.42
2023-05-10T03:16:30.548Z,95656.01
2023-05-10T03:17:48.150Z,95652.47
2023-05-10T03:19:02.369Z,95653.39
2023-05-10T03:20:15.748Z,95654.73
2023-05-10T03:21:27.288Z,95651.49
2023-05-10T03:22:37.388Z,95651.80
2023-05-10T03:23:48.272Z,95649.88
2023-05-10T03:24:58.651Z,95652.25
2023-05-10T03:26:06.028Z,95654.17
2023-05-10T03:27:15.364Z,95651.27
2023-05-10T03:28:22.059Z,95651.15
2023-05-10T03:29:29.935Z,95650.86
2023-05-10T03:30:36.828Z,95646.31
2023-05-10T03:31:43.252Z,95651.95
2023-05-10T03:32:49.632Z,95649.45
2023-05-10T03:33:55.804Z,95653.13
2023-05-10T03:35:02.604Z,95651.11
2023-05-10T03:36:10.653Z,95652.13
2023-05-10T03:37:16.763Z,95650.70
2023-05-10T03:38:22.662Z,95653.35
2023-05-10T03:39:29.338Z,95651.45
2023-05-10T03:40:35.500Z,95652.89
2023-05-10T03:41:42.769Z,95650.92
2023-05-10T03:42:48.831Z,95650.16
2023-05-10T03:43:54.954Z,95653.02
2023-05-10T03:45:01.037Z,95653.33
2023-05-10T03:46:07.574Z,95651.42
2023-05-10T03:47:13.725Z,95654.60
2023-05-10T03:48:20.352Z,95651.00
2023-05-10T03:49:26.373Z,95647.68
2023-05-10T03:50:32.865Z,95649.88
2023-05-10T03:51:39.234Z,95648.18
2023-05-10T03:52:45.485Z,95651.41
2023-05-10T03:53:51.574Z,95649.20
2023-05-10T03:54:57.592Z,95645.92
2023-05-10T03:56:04.468Z,95648.70
2023-05-10T03:57:10.850Z,95643.35
2023-05-10T03:58:16.581Z,95642.89
2023-05-10T03:59:22.694Z,95644.50
2023-05-10T04:00:28.575Z,95645.34
2023-05-10T04:01:34.592Z,95643.00
2023-05-10T04:02:41.564Z,95645.06
2023-05-10T04:03:48.062Z,95646.29
2023-05-10T04:04:54.125Z,95642.52
2023-05-10T04:06:04.022Z,95641.91
2023-05-10T04:07:11.530Z,95640.08
2023-05-10T04:08:18.231Z,95640.99
2023-05-10T04:09:24.416Z,95640.36
2023-05-10T04:10:30.137Z,95641.11
2023-05-10T04:11:36.666Z,95642.08
2023-05-10T04:12:43.348Z,95647.86
2023-05-10T04:13:50.297Z,95642.92
2023-05-10T04:14:56.143Z,95646.13
2023-05-10T04:16:02.496Z,95644.39
2023-05-10T04:17:08.932Z,95646.57
2023-05-10T04:18:15.210Z,95643.71
2023-05-10T04:19:21.432Z,95644.38
2023-05-10T04:20:27.496Z,95645.54
2023-05-10T04:21:33.488Z,95649.61
2023-05-10T04:22:39.827Z,95649.63
2023-05-10T04:23:46.290Z,95650.63
2023-05-10T04:24:52.153Z,95650.05
2023-05-10T04:26:03.201Z,95652.21
2023-05-10T04:27:09.276Z,95651.20
2023-05-10T04:28:15.492Z,95653.37
2023-05-10T04:29:21.528Z,95652.49
2023-05-10T04:30:29.755Z,95651.30
2023-05-10T04:31:37.404Z,95653.56
2023-05-10T04:32:44.853Z,95651.55
2023-05-10T04:33:51.569Z,95653.82
2023-05-10T04:34:57.747Z,95652.33
2023-05-10T04:36:05.218Z,95654.33
2023-05-10T04:37:11.062Z,95659.48
2023-05-10T04:38:18.546Z,95654.27
2023-05-10T04:39:24.760Z,95655.22
2023-05-10T04:40:31.066Z,95657.23
2023-05-10T04:41:38.647Z,95654.21
2023-05-10T04:42:44.957Z,95656.05
2023-05-10T04:43:50.872Z,95657.91
2023-05-10T04:44:57.311Z,95660.39
2023-05-10T04:46:03.824Z,95657.72
2023-05-10T04:47:12.608Z,95656.45
2023-05-10T04:48:18.747Z,95659.28
2023-05-10T04:49:25.144Z,95656.48
2023-05-10T04:50:31.058Z,95659.15
2023-05-10T04:51:37.079Z,95658.79
2023-05-10T04:52:42.935Z,95659.01
2023-05-10T04:54:01.659Z,95656.86
2023-05-10T04:55:12.451Z,95655.26
2023-05-10T04:56:18.552Z,95655.95
2023-05-10T04:57:24.795Z,95655.15
2023-05-10T04:58:30.874Z,95654.29
2023-05-10T04:59:39.094Z,95657.45
2023-05-10T05:00:45.331Z,95656.23
2023-05-10T05:01:51.319Z,95659.68
2023-05-10T05:02:57.403Z,95659.95
2023-05-10T05:04:04.108Z,95659.47
2023-05-10T05:05:11.229Z,95653.11
2023-05-10T05:06:17.332Z,95655.73
2023-05-10T05:07:23.710Z,95655.65
2023-05-10T05:08:29.854Z,95652.03
2023-05-10T05:09:35.778Z,95653.55
2023-05-10T05:10:41.611Z,95653.46
2023-05-10T05:11:47.909Z,95652.79
2023-05-10T05:12:54.247Z,95651.83
2023-05-10T05:14:01.442Z,95650.67
2023-05-10T05:15:10.827Z,95649.91
2023-05-10T05:16:17.663Z,95651.33
2023-05-10T05:17:23.779Z,95651.40
2023-05-10T05:18:29.753Z,95649.73
2023-05-10T05:19:37.343Z,95652.00
2023-05-10T05:20:43.357Z,95650.85
2023-05-10T05:21:49.356Z,95650.23
2023-05-10T05:22:55.146Z,95648.34
2023-05-10T05:24:02.269Z,95647.57
2023-05-10T05:25:10.955Z,95649.59
2023-05-10T05:26:17.191Z,95649.61
2023-05-10T05:27:26.092Z,95651.16
2023-05-10T05:28:35.373Z,95647.14
2023-05-10T05:29:42.218Z,95649.55
2023-05-10T05:30:49.183Z,95648.02
2023-05-10T05:31:55.689Z,95642.29
2023-05-10T05:33:02.078Z,95645.80
2023-05-10T05:34:08.360Z,95646.16
2023-05-10T05:35:15.056Z,95645.04
2023-05-10T05:36:21.097Z,95644.56
2023-05-10T05:37:27.840Z,95641.20
2023-05-10T05:38:39.537Z,95642.63
2023-05-10T05:39:46.168Z,95640.71
2023-05-10T05:40:51.905Z,95642.72
2023-05-10T05:41:57.937Z,95641.02
2023-05-10T05:43:04.379Z,95643.45
2023-05-10T05:44:11.096Z,95645.21
2023-05-10T05:45:18.112Z,95643.05
2023-05-10T05:46:24.403Z,95642.86
2023-05-10T05:47:30.443Z,95640.73
2023-05-10T05:48:36.774Z,95645.08
2023-05-10T05:49:43.184Z,95643.02
2023-05-10T05:50:49.020Z,95643.60
2023-05-10T05:51:55.813Z,95645.55
2023-05-10T05:53:02.150Z,95643.08
2023-05-10T05:54:09.369Z,95643.63
2023-05-10T05:55:16.043Z,95641.33
2023-05-10T05:56:25.550Z,95645.70
2023-05-10T05:57:30.314Z,95642.34
2023-05-10T05:58:36.740Z,95646.64
2023-05-10T05:59:45.082Z,95644.90
2023-05-10T06:00:51.577Z,95643.11
2023-05-10T06:01:58.447Z,95644.33
2023-05-10T06:03:04.722Z,95642.48
2023-05-10T06:04:11.519Z,95642.84
2023-05-10T06:05:19.534Z,95643.63
2023-05-10T06:06:26.088Z,95642.45
2023-05-10T06:07:31.931Z,95643.93
2023-05-10T06:08:44.589Z,95636.89
2023-05-10T06:09:50.633Z,95634.95
2023-05-10T06:10:56.578Z,95635.77
2023-05-10T06:12:02.732Z,95635.57
2023-05-10T06:13:09.379Z,95634.84
2023-05-10T06:14:15.239Z,95635.10
2023-05-10T06:15:21.703Z,95635.67
2023-05-10T06:16:27.897Z,95627.73
2023-05-10T06:17:34.056Z,95629.85
2023-05-10T06:18:40.767Z,95629.38
2023-05-10T06:19:46.839Z,95627.86
2023-05-10T06:20:54.337Z,95629.83
2023-05-10T06:22:00.451Z,95627.26
2023-05-10T06:23:06.600Z,95627.63
2023-05-10T06:24:12.667Z,95625.96
2023-05-10T06:25:19.582Z,95625.27
2023-05-10T06:26:26.606Z,95628.09
2023-05-10T06:27:32.522Z,95629.91
2023-05-10T06:28:41.267Z,95629.98
2023-05-10T06:29:48.226Z,95632.30
2023-05-10T06:30:54.691Z,95631.92
2023-05-10T06:32:01.046Z,95628.48
2023-05-10T06:33:07.475Z,95630.41
2023-05-10T06:34:15.909Z,95626.68
2023-05-10T06:35:22.154Z,95627.96
2023-05-10T06:36:28.927Z,95628.64
2023-05-10T06:37:35.696Z,95628.14
2023-05-10T06:38:42.270Z,95626.30
2023-05-10T06:39:48.741Z,95625.96
2023-05-10T06:40:55.436Z,95625.48
2023-05-10T06:42:05.921Z,95625.83
2023-05-10T06:43:12.201Z,95623.80
2023-05-10T06:44:18.054Z,95622.67
2023-05-10T06:45:24.132Z,95620.92
2023-05-10T06:46:30.370Z,95625.81
2023-05-10T06:47:39.257Z,95625.73
2023-05-10T06:48:45.824Z,95625.05
2023-05-10T06:49:52.386Z,95623.35
2023-05-10T06:50:58.364Z,95625.35
2023-05-10T06:52:05.824Z,95628.92
2023-05-10T06:53:13.808Z,95627.88
2023-05-10T06:54:20.160Z,95628.00
2023-05-10T06:55:26.945Z,95627.48
2023-05-10T06:56:33.126Z,95632.34
2023-05-10T06:57:39.499Z,95629.66
2023-05-10T06:58:45.989Z,95629.65
2023-05-10T06:59:52.636Z,95627.77
2023-05-10T07:01:06.403Z,95626.88
2023-05-10T07:02:12.419Z,95631.20
2023-05-10T07:03:19.233Z,95629.59
2023-05-10T07:04:25.633Z,95628.52
2023-05-10T07:05:31.921Z,95632.09
2023-05-10T07:06:37.886Z,95632.98
2023-05-10T07:07:44.027Z,95629.04
2023-05-10T07:08:50.278Z,95629.34
2023-05-10T07:09:57.790Z,95631.19
2023-05-10T07:11:05.337Z,95628.23
2023-05-10T07:12:15.426Z,95631.54
2023-05-10T07:13:22.241Z,95625.51
2023-05-10T07:14:28.849Z,95626.63
2023-05-10T07:15:35.400Z,95623.09
2023-05-10T07:16:42.080Z,95620.60
2023-05-10T07:17:48.844Z,95625.92
2023-05-10T07:18:57.044Z,95619.30
2023-05-10T07:20:05.331Z,95614.09
2023-05-10T07:21:12.249Z,95607.45
2023-05-10T07:22:19.198Z,95612.61
2023-05-10T07:23:26.647Z,95614.84
2023-05-10T07:24:33.295Z,95614.35
2023-05-10T07:25:39.381Z,95618.80
2023-05-10T07:26:45.571Z,95618.94
2023-05-10T07:27:52.208Z,95617.77
2023-05-10T07:28:58.344Z,95619.84
2023-05-10T07:30:04.935Z,95618.58
2023-05-10T07:31:11.279Z,95618.00
2023-05-10T07:32:17.654Z,95619.05
2023-05-10T07:33:23.737Z,95616.11
2023-05-10T07:34:31.349Z,95613.33
2023-05-10T07:35:37.316Z,95611.84
2023-05-10T07:36:44.371Z,95614.17
2023-05-10T07:37:50.426Z,95615.84
2023-05-10T07:38:58.841Z,95614.27
2023-05-10T07:40:05.891Z,95615.90
2023-05-10T07:41:12.858Z,95620.66
2023-05-10T07:42:19.226Z,95618.03
2023-05-10T07:43:25.390Z,95616.19
2023-05-10T07:44:31.541Z,95619.50
2023-05-10T07:45:38.128Z,95615.73
2023-05-10T07:46:43.990Z,95614.48
2023-05-10T07:47:50.376Z,95619.53
2023-05-10T07:48:56.941Z,95617.41
2023-05-10T07:50:04.378Z,95619.79
2023-05-10T07:51:11.761Z,95616.53
2023-05-10T07:52:18.067Z,95618.30
2023-05-10T07:53:24.641Z,95615.71
2023-05-10T07:54:30.500Z,95616.85
2023-05-10T07:55:37.879Z,95621.48
2023-05-10T07:56:48.548Z,95616.99
2023-05-10T07:57:55.175Z,95617.21
2023-05-10T07:59:04.736Z,95618.69
2023-05-10T08:00:18.840Z,95614.30
2023-05-10T08:01:25.749Z,95615.27
2023-05-10T08:02:32.304Z,95613.48
2023-05-10T08:03:39.249Z,95616.73
2023-05-10T08:04:45.660Z,95620.14
2023-05-10T08:05:53.088Z,95621.11
2023-05-10T08:06:59.456Z,95620.64
2023-05-10T08:08:06.144Z,95620.38
2023-05-10T08:09:13.755Z,95623.96
2023-05-10T08:10:22.050Z,95624.29
2023-05-10T08:11:29.300Z,95623.75
2023-05-10T08:12:35.573Z,95626.49
2023-05-10T08:13:41.610Z,95622.90
2023-05-10T08:14:48.867Z,95625.96
2023-05-10T08:15:55.734Z,95624.48
2023-05-10T08:17:02.169Z,95624.09
2023-05-10T08:18:08.556Z,95622.94
2023-05-10T08:19:15.438Z,95622.42
2023-05-10T08:20:22.032Z,95624.70
2023-05-10T08:21:29.202Z,95620.48
2023-05-10T08:22:35.727Z,95624.23
2023-05-10T08:23:45.173Z,95626.80
2023-05-10T08:24:53.681Z,95623.42
2023-05-10T08:26:00.211Z,95621.44
2023-05-10T08:27:06.494Z,95621.25
2023-05-10T08:28:12.648Z,95621.70
2023-05-10T08:29:18.796Z,95625.77
2023-05-10T08:30:25.482Z,95623.55
2023-05-10T08:31:31.720Z,95625.94
2023-05-10T08:32:39.833Z,95627.04
2023-05-10T08:33:46.376Z,95625.02
2023-05-10T08:34:52.910Z,95626.73
2023-05-10T08:36:00.193Z,95621.52
2023-05-10T08:37:06.354Z,95620.35
2023-05-10T08:38:12.347Z,95621.09
2023-05-10T08:39:29.261Z,95617.83
2023-05-10T08:40:38.559Z,95619.68
2023-05-10T08:41:48.529Z,95619.66
2023-05-10T08:42:59.861Z,95617.52
2023-05-10T08:44:08.832Z,95619.55
2023-05-10T08:45:17.021Z,95620.02
2023-05-10T08:46:24.391Z,95620.23
2023-05-10T08:47:32.010Z,95619.06
2023-05-10T08:48:40.088Z,95623.05
2023-05-10T08:49:49.131Z,95622.71
2023-05-10T08:50:58.697Z,95622.15
2023-05-10T08:52:08.598Z,95619.25
2023-05-10T08:53:16.313Z,95623.88
2023-05-10T08:54:22.685Z,95623.30
2023-05-10T08:55:28.951Z,95621.90
2023-05-10T08:56:34.798Z,95621.67
2023-05-10T08:57:40.714Z,95622.93
2023-05-10T08:58:47.056Z,95619.95
2023-05-10T08:59:53.194Z,95618.38
2023-05-10T09:01:00.393Z,95619.44
2023-05-10T09:02:07.433Z,95622.81
2023-05-10T09:03:13.878Z,95622.45
2023-05-10T09:04:20.449Z,95622.61
2023-05-10T09:05:26.936Z,95625.05
2023-05-10T09:06:34.152Z,95623.98
2023-05-10T09:07:40.080Z,95622.12
2023-05-10T09:08:48.727Z,95618.96
2023-05-10T09:09:56.921Z,95623.06
2023-05-10T09:11:04.148Z,95622.41
2023-05-10T09:12:12.694Z,95621.83
2023-05-10T09:13:21.226Z,95619.31
2023-05-10T09:14:28.171Z,95622.22
2023-05-10T09:15:34.268Z,95617.48
2023-05-10T09:16:40.833Z,95618.67
2023-05-10T09:17:48.589Z,95618.35
2023-05-10T09:18:56.209Z,95618.88
2023-05-10T09:20:06.202Z,95618.34
2023-05-10T09:21:13.884Z,95617.73
2023-05-10T09:22:21.250Z,95621.85
2023-05-10T09:23:33.676Z,95623.69
2023-05-10T09:24:43.585Z,95622.55
2023-05-10T09:26:04.071Z,95621.42
2023-05-10T09:27:10.875Z,95620.63
2023-05-10T09:28:17.352Z,95618.73
2023-05-10T09:29:23.890Z,95618.70
2023-05-10T09:30:31.898Z,95614.91
2023-05-10T09:31:58.275Z,95610.27
2023-05-10T09:33:06.292Z,95613.06
2023-05-10T09:34:11.996Z,95613.44
2023-05-10T09:35:20.415Z,95612.05
2023-05-10T09:36:26.361Z,95607.48
2023-05-10T09:37:33.744Z,95605.34
2023-05-10T09:38:49.938Z,95608.38
2023-05-10T09:39:57.946Z,95605.85
2023-05-10T09:41:04.661Z,95603.77
2023-05-10T09:42:12.065Z,95602.39
2023-05-10T09:43:18.214Z,95603.02
2023-05-10T09:44:24.618Z,95599.27
2023-05-10T09:45:32.166Z,95597.84
2023-05-10T09:46:39.184Z,95598.70
2023-05-10T09:47:47.269Z,95599.22
2023-05-10T09:48:54.617Z,95596.18
2023-05-10T09:50:04.681Z,95594.23
2023-05-10T09:51:11.819Z,95591.40
2023-05-10T09:52:18.272Z,95593.09
2023-05-10T09:53:24.712Z,95593.45
2023-05-10T09:54:33.894Z,95597.05
2023-05-10T09:55:50.374Z,95590.70
2023-05-10T09:56:56.592Z,95593.45
2023-05-10T09:58:03.819Z,95595.98
2023-05-10T09:59:12.403Z,95592.13
2023-05-10T10:00:22.898Z,95593.47
2023-05-10T10:01:31.616Z,95589.89
2023-05-10T10:02:39.787Z,95587.86
2023-05-10T10:03:46.851Z,95589.83
2023-05-10T10:04:54.425Z,95589.50
2023-05-10T10:06:00.699Z,95586.69
2023-05-10T10:07:08.054Z,95590.55
2023-05-10T10:08:15.426Z,95588.30
2023-05-10T10:09:21.796Z,95586.88
2023-05-10T10:10:29.300Z,95588.02
2023-05-10T10:11:37.570Z,95588.22
2023-05-10T10:12:46.031Z,95587.57
2023-05-10T10:13:52.755Z,95587.20
2023-05-10T10:15:00.865Z,95592.64
2023-05-10T10:16:09.514Z,95588.96
2023-05-10T10:17:16.136Z,95589.56
2023-05-10T10:18:28.091Z,95590.52
2023-05-10T10:19:37.125Z,95587.94
2023-05-10T10:20:45.444Z,95589.45
2023-05-10T10:21:52.576Z,95587.13
2023-05-10T10:22:58.972Z,95585.98
2023-05-10T10:24:08.608Z,95583.55
2023-05-10T10:25:16.566Z,95583.52
2023-05-10T10:26:26.248Z,95582.20
2023-05-10T10:27:49.609Z,95580.91
2023-05-10T10:29:08.901Z,95581.68
2023-05-10T10:30:26.261Z,95585.52
2023-05-10T10:31:40.230Z,95582.15
2023-05-10T10:33:20.122Z,95578.09
2023-05-10T10:34:34.802Z,95576.79
2023-05-10T10:35:41.982Z,95578.56
2023-05-10T10:36:49.902Z,95580.73
2023-05-10T10:37:56.392Z,95577.92
2023-05-10T10:39:04.095Z,95576.91
2023-05-10T10:40:27.372Z,95578.64
2023-05-10T10:41:36.717Z,95575.93
2023-05-10T10:42:48.451Z,95577.62
2023-05-10T10:44:27.929Z,95577.95
2023-05-10T10:45:34.443Z,95580.27
2023-05-10T10:47:06.956Z,95577.17
2023-05-10T10:48:27.084Z,95576.95
2023-05-10T10:49:38.289Z,95577.11
2023-05-10T10:50:48.471Z,95578.26
2023-05-10T10:52:24.942Z,95570.92
2023-05-10T10:53:32.054Z,95572.92
2023-05-10T10:54:38.361Z,95573.42
2023-05-10T10:55:50.533Z,95573.58
2023-05-10T10:57:16.781Z,95572.56
2023-05-10T10:58:35.492Z,95574.50
2023-05-10T10:59:46.691Z,95576.34
2023-05-10T11:01:13.612Z,95575.34
2023-05-10T11:02:45.692Z,95574.52
2023-05-10T11:04:21.668Z,95569.95
2023-05-10T11:05:45.952Z,95567.67
2023-05-10T11:06:52.065Z,95570.46
2023-05-10T11:08:00.166Z,95571.73
2023-05-10T11:09:12.890Z,95569.94
2023-05-10T11:10:22.151Z,95568.80
2023-05-10T11:11:28.451Z,95573.63
2023-05-10T11:12:34.635Z,95567.26
2023-05-10T11:13:45.464Z,95566.64
2023-05-10T11:14:58.523Z,95564.27
2023-05-10T11:16:15.025Z,95566.07
2023-05-10T11:17:28.561Z,95567.70
2023-05-10T11:18:34.570Z,95563.98
2023-05-10T11:20:11.583Z,95563.50
2023-05-10T11:21:18.226Z,95564.84
2023-05-10T11:22:28.768Z,95563.85
2023-05-10T11:23:50.144Z,95560.55
2023-05-10T11:25:07.902Z,95560.02
2023-05-10T11:26:14.848Z,95556.88
2023-05-10T11:27:21.721Z,95557.41
2023-05-10T11:28:29.446Z,95555.73
2023-05-10T11:29:35.466Z,95554.70
2023-05-10T11:30:44.353Z,95553.67
2023-05-10T11:31:51.045Z,95556.36
2023-05-10T11:32:58.046Z,95550.30
2023-05-10T11:34:03.925Z,95550.01
2023-05-10T11:35:14.840Z,95550.35
2023-05-10T11:36:22.685Z,95549.15
2023-05-10T11:37:35.165Z,95546.38
2023-05-10T11:38:41.279Z,95544.10
2023-05-10T11:39:49.669Z,95546.62
2023-05-10T11:40:56.116Z,95545.77
2023-05-10T11:42:02.813Z,95544.08
2023-05-10T11:43:13.260Z,95546.13
2023-05-10T11:44:19.404Z,95546.33
2023-05-10T11:45:27.811Z,95542.66
2023-05-10T11:46:35.514Z,95544.83
2023-05-10T11:47:44.568Z,95546.23
2023-05-10T11:48:54.465Z,95549.30
2023-05-10T11:50:01.116Z,95550.78
2023-05-10T11:51:07.590Z,95547.61
2023-05-10T11:52:13.639Z,95546.02
2023-05-10T11:53:21.524Z,95547.88
2023-05-10T11:54:27.743Z,95545.67
2023-05-10T11:55:36.252Z,95546.12
2023-05-10T11:56:43.095Z,95543.23
2023-05-10T11:57:52.697Z,95542.11
2023-05-10T11:59:01.222Z,95540.98
2023-05-10T12:00:10.428Z,95537.09
2023-05-10T12:01:16.471Z,95538.88
2023-05-10T12:02:22.651Z,95541.21
2023-05-10T12:03:30.159Z,95542.88
2023-05-10T12:04:36.502Z,95542.25
2023-05-10T12:05:43.200Z,95541.70
2023-05-10T12:06:49.788Z,95540.26
2023-05-10T12:08:11.499Z,95541.08
2023-05-10T12:09:19.202Z,95543.54
2023-05-10T12:10:29.867Z,95543.45
2023-05-10T12:11:43.556Z,95540.48
2023-05-10T12:12:53.542Z,95539.98
2023-05-10T12:13:59.684Z,95542.45
2023-05-10T12:15:11.554Z,95538.90
2023-05-10T12:16:19.319Z,95538.89
2023-05-10T12:17:30.019Z,95537.77
2023-05-10T12:18:40.079Z,95539.11
2023-05-10T12:19:48.359Z,95540.59
2023-05-10T12:20:55.747Z,95538.55
2023-05-10T12:22:05.356Z,95539.52
2023-05-10T12:23:14.387Z,95538.67
2023-05-10T12:24:22.566Z,95539.48
2023-05-10T12:25:40.460Z,95539.66
2023-05-10T12:26:49.668Z,95535.86
2023-05-10T12:27:58.790Z,95537.37
2023-05-10T12:29:19.310Z,95535.30
2023-05-10T12:30:27.494Z,95536.02
2023-05-10T12:31:33.756Z,95532.24
2023-05-10T12:32:45.188Z,95533.64
2023-05-10T12:33:51.690Z,95535.89
2023-05-10T12:34:58.710Z,95537.05
2023-05-10T12:36:06.085Z,95531.38
2023-05-10T12:37:12.063Z,95533.70
2023-05-10T12:38:33.479Z,95533.23
2023-05-10T12:39:47.518Z,95530.92
2023-05-10T12:40:54.152Z,95530.33
2023-05-10T12:42:01.374Z,95529.02
2023-05-10T12:43:07.517Z,95529.45
2023-05-10T12:44:14.169Z,95526.02
2023-05-10T12:45:21.011Z,95529.51
2023-05-10T12:46:28.884Z,95526.34
2023-05-10T12:47:36.069Z,95526.05
2023-05-10T12:48:44.327Z,95526.07
2023-05-10T12:49:50.758Z,95526.50
2023-05-10T12:50:57.022Z,95524.62
2023-05-10T12:52:02.758Z,95521.61
2023-05-10T12:53:10.026Z,95520.63
2023-05-10T12:54:15.988Z,95519.67
2023-05-10T12:55:22.152Z,95516.48
2023-05-10T12:56:35.136Z,95512.08
2023-05-10T12:57:41.127Z,95515.69
2023-05-10T12:58:50.050Z,95517.29
2023-05-10T12:59:57.217Z,95512.44
2023-05-10T13:01:04.274Z,95509.20
2023-05-10T13:02:12.162Z,95507.80
2023-05-10T13:03:17.961Z,95511.70
2023-05-10T13:04:24.672Z,95506.98
2023-05-10T13:05:30.821Z,95508.00
2023-05-10T13:06:37.081Z,95507.48
2023-05-10T13:07:44.966Z,95509.71
2023-05-10T13:08:50.751Z,95509.17
2023-05-10T13:09:56.664Z,95506.28
2023-05-10T13:11:03.844Z,95504.86
2023-05-10T13:12:10.923Z,95505.17
2023-05-10T13:13:17.279Z,95504.23
2023-05-10T13:14:23.628Z,95504.81
2023-05-10T13:15:29.883Z,95499.79
2023-05-10T13:16:36.466Z,95496.84
2023-05-10T13:17:43.774Z,95498.77
2023-05-10T13:18:50.285Z,95498.27
2023-05-10T13:19:56.841Z,95493.29
2023-05-10T13:21:05.160Z,95493.58
2023-05-10T13:22:11.594Z,95493.42
2023-05-10T13:23:17.953Z,95495.02
2023-05-10T13:24:23.762Z,95493.27
2023-05-10T13:25:30.108Z,95493.62